Cummings, North Dakota
Current Conditions -  °F | °C
As of 4:53 PM on Thursday 18 Dec 2014 (Local Time) from KGFK Reporting Station
Overcast Overcast  
Wind Chill:   Ceiling: 7000
Heat Index: 19°   Visibility: 10mi
Dew Point: 14°   Wind: 12mph
Humidity: 81%   Direction: 170°S
Pressure: 30.18"   Gusts: NA
Location:  47.51°N, 97.08°W
Report Text: KGFK 182253Z 17010KT 10SM OVC070 M07/M10 A3018 RMK AO2 SLP240 T10721100
Loading
Personal Weather Stations






























Interactive Weather Map New forecast layout! Learn more

10-Day Weather Forecast

Advertisements
Track Severe Weather on mobile